createdAt,value
2022-10-16T00:01:29.055Z,14.21
2022-10-16T00:03:56.916Z,12.73
2022-10-16T00:06:24.033Z,13.61
2022-10-16T00:08:51.268Z,13.71
2022-10-16T00:11:21.825Z,13.84
2022-10-16T00:13:50.309Z,14.28
2022-10-16T00:16:17.652Z,14.24
2022-10-16T00:18:44.370Z,13.07
2022-10-16T00:21:15.214Z,13.38
2022-10-16T00:23:42.077Z,13.85
2022-10-16T00:26:12.961Z,14.13
2022-10-16T00:28:40.361Z,13.50
2022-10-16T00:31:13.940Z,13.87
2022-10-16T00:33:41.310Z,13.04
2022-10-16T00:36:10.997Z,14.08
2022-10-16T00:38:38.806Z,14.01
2022-10-16T00:41:06.919Z,11.77
2022-10-16T00:43:55.309Z,11.56
2022-10-16T00:46:26.019Z,11.48
2022-10-16T00:48:56.411Z,13.86
2022-10-16T00:51:29.207Z,13.21
2022-10-16T00:53:56.289Z,13.79
2022-10-16T00:56:23.030Z,11.32
2022-10-16T00:58:49.683Z,12.89
2022-10-16T01:01:16.482Z,13.59
2022-10-16T01:03:43.093Z,13.68
2022-10-16T01:06:41.726Z,13.67
2022-10-16T01:09:25.084Z,12.35
2022-10-16T01:12:06.571Z,13.51
2022-10-16T01:14:55.573Z,13.61
2022-10-16T01:17:33.694Z,12.69
2022-10-16T01:20:07.586Z,12.78
2022-10-16T01:22:56.655Z,13.47
2022-10-16T01:26:04.669Z,13.11
2022-10-16T01:28:37.767Z,12.61
2022-10-16T01:31:05.092Z,13.31
2022-10-16T01:33:41.008Z,13.35
2022-10-16T01:36:15.844Z,12.90
2022-10-16T01:38:45.729Z,12.15
2022-10-16T01:41:22.447Z,13.34
2022-10-16T01:44:07.193Z,12.51
2022-10-16T01:46:36.843Z,13.35
2022-10-16T01:49:05.654Z,12.63
2022-10-16T01:51:34.102Z,13.28
2022-10-16T01:54:02.920Z,12.62
2022-10-16T01:56:30.751Z,12.97
2022-10-16T01:59:02.334Z,12.64
2022-10-16T02:01:32.510Z,13.08
2022-10-16T02:04:02.968Z,13.21
2022-10-16T02:06:30.487Z,13.48
2022-10-16T02:08:57.099Z,12.52
2022-10-16T02:11:23.723Z,13.57
2022-10-16T02:13:56.404Z,12.55
2022-10-16T02:16:34.624Z,12.78
2022-10-16T02:19:01.766Z,13.70
2022-10-16T02:21:41.672Z,13.27
2022-10-16T02:24:17.339Z,13.71
2022-10-16T02:26:53.959Z,13.13
2022-10-16T02:29:25.541Z,13.36
2022-10-16T02:31:59.183Z,13.52
2022-10-16T02:34:27.395Z,13.64
2022-10-16T02:36:55.792Z,13.52
2022-10-16T02:39:23.158Z,13.49
2022-10-16T02:41:49.820Z,13.31
2022-10-16T02:44:16.433Z,13.19
2022-10-16T02:46:42.999Z,13.86
2022-10-16T02:49:09.570Z,13.69
2022-10-16T02:51:36.127Z,13.51
2022-10-16T02:54:03.371Z,13.68
2022-10-16T02:56:30.943Z,13.94
2022-10-16T02:59:00.876Z,13.58
2022-10-16T03:01:27.573Z,13.69
2022-10-16T03:03:54.362Z,12.86
2022-10-16T03:06:21.000Z,12.71
2022-10-16T03:08:47.697Z,12.46
2022-10-16T03:11:14.273Z,13.24
2022-10-16T03:13:40.895Z,13.70
2022-10-16T03:16:07.556Z,13.21
2022-10-16T03:18:34.259Z,13.46
2022-10-16T03:21:00.980Z,13.12
2022-10-16T03:23:27.680Z,13.33
2022-10-16T03:25:54.954Z,13.00
2022-10-16T03:28:21.765Z,12.05
2022-10-16T03:30:48.368Z,13.39
2022-10-16T03:33:15.229Z,13.37
2022-10-16T03:35:41.848Z,13.10
2022-10-16T03:38:08.556Z,13.39
2022-10-16T03:40:35.202Z,13.44
2022-10-16T03:43:02.325Z,11.55
2022-10-16T03:45:29.182Z,12.64
2022-10-16T03:47:55.783Z,12.72
2022-10-16T03:50:22.321Z,13.60
2022-10-16T03:52:49.017Z,13.37
2022-10-16T03:55:15.810Z,13.61
2022-10-16T03:57:42.484Z,13.62
2022-10-16T04:00:09.726Z,13.68
2022-10-16T04:02:39.634Z,13.74
2022-10-16T04:05:06.927Z,13.38
2022-10-16T04:07:33.471Z,13.53
2022-10-16T04:10:00.121Z,13.10
2022-10-16T04:12:27.839Z,13.80
2022-10-16T04:14:54.465Z,13.79
2022-10-16T04:17:21.108Z,13.01
2022-10-16T04:19:47.670Z,12.09
2022-10-16T04:22:14.329Z,13.77
2022-10-16T04:24:41.087Z,13.79
2022-10-16T04:27:07.596Z,12.68
2022-10-16T04:29:34.182Z,12.05
2022-10-16T04:32:00.782Z,13.01
2022-10-16T04:34:27.341Z,13.64
2022-10-16T04:36:53.981Z,12.63
2022-10-16T04:39:20.589Z,13.36
2022-10-16T04:41:47.187Z,12.93
2022-10-16T04:44:13.807Z,12.44
2022-10-16T04:46:40.331Z,13.16
2022-10-16T04:49:06.856Z,11.68
2022-10-16T04:51:34.357Z,13.11
2022-10-16T04:54:00.966Z,12.26
2022-10-16T04:56:27.628Z,12.81
2022-10-16T04:58:54.295Z,12.51
2022-10-16T05:01:20.987Z,11.58
2022-10-16T05:03:47.624Z,13.49
2022-10-16T05:06:14.165Z,13.51
2022-10-16T05:08:40.743Z,12.60
2022-10-16T05:11:07.413Z,12.71
2022-10-16T05:13:33.975Z,11.38
2022-10-16T05:16:00.612Z,12.94
2022-10-16T05:18:27.190Z,13.76
2022-10-16T05:20:53.860Z,12.25
2022-10-16T05:23:20.406Z,13.53
2022-10-16T05:25:59.029Z,13.92
2022-10-16T05:28:26.694Z,13.86
2022-10-16T05:30:53.651Z,12.78
2022-10-16T05:33:25.645Z,13.77
2022-10-16T05:35:52.767Z,13.21
2022-10-16T05:38:19.830Z,12.22
2022-10-16T05:40:53.643Z,13.48
2022-10-16T05:43:21.023Z,12.57
2022-10-16T05:46:07.197Z,12.72
2022-10-16T05:48:34.073Z,13.10
2022-10-16T05:51:03.189Z,12.96
2022-10-16T05:53:31.498Z,13.31
2022-10-16T05:55:58.691Z,13.23
2022-10-16T05:58:26.914Z,12.45
2022-10-16T06:00:57.456Z,13.16
2022-10-16T06:03:24.532Z,11.19
2022-10-16T06:05:51.533Z,13.14
2022-10-16T06:08:19.699Z,12.03
2022-10-16T06:10:48.003Z,11.09
2022-10-16T06:13:15.303Z,13.00
2022-10-16T06:15:43.405Z,12.30
2022-10-16T06:18:10.916Z,11.84
2022-10-16T06:20:38.800Z,12.47
2022-10-16T06:23:05.481Z,12.73
2022-10-16T06:25:32.699Z,11.75
2022-10-16T06:27:59.420Z,11.27
2022-10-16T06:30:26.189Z,13.49
2022-10-16T06:32:52.806Z,13.17
2022-10-16T06:35:19.447Z,12.53
2022-10-16T06:37:46.056Z,13.92
2022-10-16T06:40:12.745Z,13.90
2022-10-16T06:42:39.342Z,12.14
2022-10-16T06:45:06.392Z,14.11
2022-10-16T06:47:35.944Z,12.74
2022-10-16T06:50:04.770Z,13.66
2022-10-16T06:52:31.359Z,11.57
2022-10-16T06:54:57.900Z,13.75
2022-10-16T06:57:24.540Z,13.74
2022-10-16T06:59:55.232Z,12.64
2022-10-16T07:02:22.083Z,13.89
2022-10-16T07:04:48.668Z,15.00
2022-10-16T07:07:15.305Z,14.50
2022-10-16T07:09:41.899Z,14.38
2022-10-16T07:12:08.486Z,14.82
2022-10-16T07:14:35.044Z,15.28
2022-10-16T07:17:01.707Z,14.69
2022-10-16T07:19:31.903Z,16.96
2022-10-16T07:22:00.162Z,16.15
2022-10-16T07:24:26.816Z,16.07
2022-10-16T07:26:56.425Z,16.96
2022-10-16T07:29:23.405Z,14.69
2022-10-16T07:31:50.662Z,15.76
2022-10-16T07:34:18.904Z,16.73
2022-10-16T07:36:48.997Z,16.77
2022-10-16T07:39:15.593Z,15.68
2022-10-16T07:41:42.129Z,16.92
2022-10-16T07:44:09.038Z,16.31
2022-10-16T07:46:36.946Z,17.11
2022-10-16T07:49:04.434Z,16.29
2022-10-16T07:51:31.147Z,17.05
2022-10-16T07:53:57.729Z,17.86
2022-10-16T07:56:24.712Z,19.36
2022-10-16T07:58:52.187Z,19.85
2022-10-16T08:01:19.334Z,20.31
2022-10-16T08:03:51.044Z,19.81
2022-10-16T08:06:20.843Z,19.70
2022-10-16T08:08:50.682Z,19.65
2022-10-16T08:11:17.466Z,20.12
2022-10-16T08:13:44.236Z,17.89
2022-10-16T08:16:10.903Z,19.52
2022-10-16T08:18:39.191Z,22.26
2022-10-16T08:21:07.192Z,23.06
2022-10-16T08:23:34.845Z,23.83
2022-10-16T08:26:09.370Z,21.67
2022-10-16T08:28:36.591Z,23.34
2022-10-16T08:31:08.343Z,24.78
2022-10-16T08:33:36.223Z,23.44
2022-10-16T08:36:04.272Z,23.38
2022-10-16T08:38:31.080Z,23.22
2022-10-16T08:41:28.969Z,23.44
2022-10-16T08:44:29.162Z,23.55
2022-10-16T08:47:18.527Z,24.24
2022-10-16T08:50:09.282Z,23.99
2022-10-16T08:52:42.496Z,23.67
2022-10-16T08:55:47.033Z,24.36
2022-10-16T08:58:27.304Z,23.50
2022-10-16T09:01:01.124Z,23.84
2022-10-16T09:03:59.116Z,23.76
2022-10-16T09:06:47.643Z,23.40
2022-10-16T09:09:43.222Z,23.31
2022-10-16T09:12:19.172Z,23.09
2022-10-16T09:15:21.751Z,23.14
2022-10-16T09:18:11.051Z,23.68
2022-10-16T09:21:02.553Z,23.46
2022-10-16T09:23:31.409Z,23.51
2022-10-16T09:25:59.615Z,23.11
2022-10-16T09:28:27.032Z,22.22
2022-10-16T09:30:54.385Z,21.65
2022-10-16T09:33:26.930Z,19.80
2022-10-16T09:35:56.930Z,21.05
2022-10-16T09:38:37.170Z,21.55
2022-10-16T09:41:22.246Z,21.27
2022-10-16T09:44:03.255Z,21.12
2022-10-16T09:46:35.848Z,21.05
2022-10-16T09:49:06.534Z,20.83
2022-10-16T09:51:36.558Z,19.13
2022-10-16T09:54:15.520Z,19.45
2022-10-16T09:56:42.715Z,20.13
2022-10-16T09:59:28.175Z,19.50
2022-10-16T10:01:56.111Z,19.74
2022-10-16T10:04:26.933Z,19.13
2022-10-16T10:06:56.953Z,18.59
2022-10-16T10:09:39.327Z,19.95
2022-10-16T10:12:17.240Z,20.26
2022-10-16T10:14:47.646Z,19.73
2022-10-16T10:17:20.885Z,20.09
2022-10-16T10:19:59.188Z,19.60
2022-10-16T10:22:45.284Z,19.84
2022-10-16T10:25:11.805Z,20.30
2022-10-16T10:27:47.506Z,20.30
2022-10-16T10:30:30.602Z,20.40
2022-10-16T10:33:07.461Z,20.62
2022-10-16T10:35:51.033Z,20.68
2022-10-16T10:38:23.980Z,21.02
2022-10-16T10:40:56.566Z,20.78
2022-10-16T10:43:41.309Z,21.39
2022-10-16T10:46:15.145Z,21.47
2022-10-16T10:49:00.103Z,21.51
2022-10-16T10:51:32.857Z,21.60
2022-10-16T10:54:17.793Z,21.50
2022-10-16T10:56:56.617Z,21.56
2022-10-16T10:59:46.325Z,19.84
2022-10-16T11:02:25.673Z,21.45
2022-10-16T11:05:10.820Z,21.69
2022-10-16T11:07:53.015Z,20.79
2022-10-16T11:10:25.336Z,21.07
2022-10-16T11:13:01.448Z,21.93
2022-10-16T11:15:37.283Z,21.24
2022-10-16T11:18:12.747Z,21.47
2022-10-16T11:20:46.792Z,22.14
2022-10-16T11:23:24.262Z,21.72
2022-10-16T11:25:52.632Z,21.60
2022-10-16T11:28:32.807Z,20.42
2022-10-16T11:31:30.717Z,22.31
2022-10-16T11:34:08.093Z,21.31
2022-10-16T11:37:02.196Z,22.74
2022-10-16T11:39:30.810Z,21.71
2022-10-16T11:42:23.663Z,22.65
2022-10-16T11:45:12.444Z,20.76
2022-10-16T11:48:05.517Z,21.96
2022-10-16T11:50:51.184Z,21.78
2022-10-16T11:53:36.992Z,23.10
2022-10-16T11:56:05.552Z,23.08
2022-10-16T11:58:50.385Z,23.82
2022-10-16T12:04:20.758Z,23.59
2022-10-16T12:07:01.125Z,23.05
2022-10-16T12:09:31.492Z,23.08
2022-10-16T12:11:58.815Z,21.75
2022-10-16T12:14:28.396Z,23.88
2022-10-16T12:17:06.444Z,23.80
2022-10-16T12:19:33.623Z,23.46
2022-10-16T12:22:02.703Z,23.58
2022-10-16T12:24:36.626Z,23.42
2022-10-16T12:27:05.904Z,23.46
2022-10-16T12:29:44.938Z,23.07
2022-10-16T12:32:47.404Z,24.14
2022-10-16T12:35:24.361Z,22.90
2022-10-16T12:37:52.562Z,23.88
2022-10-16T12:40:28.356Z,24.23
2022-10-16T12:42:55.088Z,23.30
2022-10-16T12:45:26.570Z,24.33
2022-10-16T12:47:55.324Z,23.21
2022-10-16T12:50:24.923Z,23.58
2022-10-16T12:52:51.563Z,22.82
2022-10-16T12:55:20.560Z,22.33
2022-10-16T12:58:34.953Z,23.17
2022-10-16T13:01:29.311Z,23.29
2022-10-16T13:04:17.693Z,23.60
2022-10-16T13:07:18.075Z,23.16
2022-10-16T13:10:13.327Z,23.29
2022-10-16T13:12:58.303Z,24.13
2022-10-16T13:15:43.304Z,24.03
2022-10-16T13:18:12.979Z,23.87
2022-10-16T13:21:05.804Z,23.74
2022-10-16T13:23:58.708Z,23.23
2022-10-16T13:26:49.726Z,22.73
2022-10-16T13:29:17.004Z,22.16
2022-10-16T13:31:45.189Z,22.28
2022-10-16T13:34:20.473Z,21.70
2022-10-16T13:36:52.556Z,22.54
2022-10-16T13:39:31.503Z,22.46
2022-10-16T13:42:04.847Z,22.25
2022-10-16T13:44:43.470Z,20.89
2022-10-16T13:47:22.405Z,21.93
2022-10-16T13:50:05.281Z,22.36
2022-10-16T13:52:32.345Z,22.75
2022-10-16T13:55:01.773Z,21.16
2022-10-16T13:57:29.450Z,20.28
2022-10-16T13:59:56.063Z,21.21
2022-10-16T14:02:40.138Z,22.13
2022-10-16T14:05:11.402Z,21.68
2022-10-16T14:07:39.146Z,21.62
2022-10-16T14:10:19.066Z,21.80
2022-10-16T14:12:46.011Z,22.10
2022-10-16T14:15:20.187Z,21.66
2022-10-16T14:17:50.847Z,22.11
2022-10-16T14:20:17.848Z,19.67
2022-10-16T14:22:44.559Z,20.84
2022-10-16T14:25:20.378Z,21.67
2022-10-16T14:27:59.322Z,21.56
2022-10-16T14:30:26.275Z,20.70
2022-10-16T14:32:57.517Z,19.84
2022-10-16T14:35:33.039Z,21.43
2022-10-16T14:38:01.639Z,21.16
2022-10-16T14:40:32.164Z,20.28
2022-10-16T14:43:00.468Z,21.15
2022-10-16T14:45:34.859Z,21.06
2022-10-16T14:48:06.300Z,19.11
2022-10-16T14:50:32.917Z,20.70
2022-10-16T14:53:00.043Z,20.71
2022-10-16T14:55:27.015Z,18.84
2022-10-16T14:57:58.137Z,20.94
2022-10-16T15:00:27.420Z,18.38
2022-10-16T15:02:54.024Z,21.02
2022-10-16T15:05:23.279Z,19.51
2022-10-16T15:07:50.413Z,20.85
2022-10-16T15:10:18.359Z,17.76
2022-10-16T15:12:45.251Z,20.63
2022-10-16T15:15:35.460Z,19.76
2022-10-16T15:18:03.473Z,20.28
2022-10-16T15:20:37.885Z,20.01
2022-10-16T15:23:21.348Z,20.29
2022-10-16T15:26:09.041Z,20.62
2022-10-16T15:28:37.040Z,19.50
2022-10-16T15:31:05.529Z,19.02
2022-10-16T15:33:38.694Z,19.38
2022-10-16T15:36:07.414Z,20.42
2022-10-16T15:38:34.030Z,20.02
2022-10-16T15:41:00.792Z,20.14
2022-10-16T15:43:27.454Z,17.78
2022-10-16T15:46:15.396Z,20.20
2022-10-16T15:48:42.360Z,19.54
2022-10-16T15:51:09.002Z,18.30
2022-10-16T15:53:36.729Z,19.32
2022-10-16T15:56:05.106Z,17.71
2022-10-16T15:58:32.037Z,19.80
2022-10-16T16:01:01.939Z,18.55
2022-10-16T16:03:29.432Z,19.63
2022-10-16T16:05:56.044Z,19.12
2022-10-16T16:08:22.964Z,19.11
2022-10-16T16:11:11.254Z,18.83
2022-10-16T16:13:39.126Z,18.88
2022-10-16T16:16:13.516Z,17.62
2022-10-16T16:18:40.632Z,16.93
2022-10-16T16:21:07.944Z,18.11
2022-10-16T16:23:34.701Z,19.18
2022-10-16T16:26:15.579Z,19.12
2022-10-16T16:28:44.212Z,19.05
2022-10-16T16:31:11.229Z,17.43
2022-10-16T16:33:37.881Z,18.82
2022-10-16T16:36:10.445Z,18.36
2022-10-16T16:38:39.876Z,18.22
2022-10-16T16:41:18.716Z,18.77
2022-10-16T16:43:45.865Z,16.05
2022-10-16T16:46:12.827Z,17.86
2022-10-16T16:48:39.666Z,16.62
2022-10-16T16:51:08.382Z,17.82
2022-10-16T16:53:36.373Z,18.63
2022-10-16T16:56:05.199Z,18.64
2022-10-16T16:58:32.701Z,16.20
2022-10-16T17:01:18.786Z,18.56
2022-10-16T17:03:47.445Z,18.60
2022-10-16T17:06:15.378Z,18.58
2022-10-16T17:08:43.375Z,18.23
2022-10-16T17:11:16.207Z,17.80
2022-10-16T17:13:42.935Z,16.74
2022-10-16T17:16:09.884Z,18.42
2022-10-16T17:18:36.907Z,17.64
2022-10-16T17:21:06.546Z,17.56
2022-10-16T17:23:34.224Z,18.08
2022-10-16T17:26:16.287Z,18.32
2022-10-16T17:28:44.416Z,16.88
2022-10-16T17:31:14.299Z,17.53
2022-10-16T17:33:41.453Z,17.55
2022-10-16T17:36:08.329Z,16.69
2022-10-16T17:38:36.937Z,17.70
2022-10-16T17:41:12.758Z,18.13
2022-10-16T17:43:41.493Z,16.44
2022-10-16T17:46:09.595Z,18.08
2022-10-16T17:48:41.056Z,16.78
2022-10-16T17:51:09.100Z,17.11
2022-10-16T17:53:39.535Z,16.93
2022-10-16T17:56:08.243Z,16.45
2022-10-16T17:58:35.390Z,18.03
2022-10-16T18:01:03.054Z,17.83
2022-10-16T18:03:29.725Z,15.96
2022-10-16T18:05:56.586Z,16.15
2022-10-16T18:08:26.450Z,17.91
2022-10-16T18:10:55.817Z,15.48
2022-10-16T18:13:23.375Z,16.14
2022-10-16T18:16:00.901Z,17.38
2022-10-16T18:18:29.649Z,14.63
2022-10-16T18:21:01.149Z,16.38
2022-10-16T18:23:29.046Z,17.41
2022-10-16T18:25:56.194Z,16.56
2022-10-16T18:28:23.438Z,15.80
2022-10-16T18:31:03.085Z,16.58
2022-10-16T18:33:32.620Z,16.07
2022-10-16T18:36:04.141Z,15.68
2022-10-16T18:38:30.910Z,15.35
2022-10-16T18:40:58.289Z,15.43
2022-10-16T18:43:24.893Z,17.37
2022-10-16T18:46:00.279Z,17.58
2022-10-16T18:48:27.763Z,15.82
2022-10-16T18:50:54.585Z,16.31
2022-10-16T18:53:21.393Z,15.89
2022-10-16T18:55:53.179Z,17.31
2022-10-16T18:58:20.344Z,16.59
2022-10-16T19:00:47.135Z,17.71
2022-10-16T19:03:13.738Z,16.95
2022-10-16T19:05:40.354Z,16.99
2022-10-16T19:08:07.126Z,17.19
2022-10-16T19:10:37.277Z,16.17
2022-10-16T19:13:07.519Z,15.60
2022-10-16T19:15:49.720Z,16.69
2022-10-16T19:18:27.002Z,15.46
2022-10-16T19:20:54.666Z,16.62
2022-10-16T19:23:21.900Z,17.44
2022-10-16T19:25:48.514Z,14.47
2022-10-16T19:28:15.168Z,16.10
2022-10-16T19:30:42.772Z,16.86
2022-10-16T19:33:09.441Z,15.69
2022-10-16T19:35:36.125Z,16.85
2022-10-16T19:38:02.700Z,14.08
2022-10-16T19:40:29.404Z,16.27
2022-10-16T19:42:56.068Z,16.58
2022-10-16T19:45:22.873Z,15.46
2022-10-16T19:47:49.547Z,17.20
2022-10-16T19:50:16.352Z,15.50
2022-10-16T19:52:43.220Z,15.63
2022-10-16T19:55:10.061Z,15.84
2022-10-16T19:57:37.606Z,16.53
2022-10-16T20:00:09.306Z,15.69
2022-10-16T20:02:36.290Z,17.20
2022-10-16T20:05:03.062Z,14.25
2022-10-16T20:07:32.587Z,17.15
2022-10-16T20:10:01.536Z,16.00
2022-10-16T20:12:28.134Z,16.03
2022-10-16T20:14:54.713Z,15.67
2022-10-16T20:17:21.290Z,14.15
2022-10-16T20:19:47.985Z,16.50
2022-10-16T20:22:14.577Z,15.13
2022-10-16T20:24:41.353Z,13.96
2022-10-16T20:27:09.293Z,17.09
2022-10-16T20:29:36.011Z,17.14
2022-10-16T20:32:02.995Z,17.11
2022-10-16T20:34:29.768Z,15.65
2022-10-16T20:36:56.479Z,15.71
2022-10-16T20:39:23.189Z,15.13
2022-10-16T20:41:49.834Z,17.02
2022-10-16T20:44:28.526Z,16.99
2022-10-16T20:46:55.957Z,14.77
2022-10-16T20:49:39.387Z,15.35
2022-10-16T20:52:06.771Z,16.72
2022-10-16T20:54:33.325Z,15.75
2022-10-16T20:56:59.945Z,14.14
2022-10-16T22:25:19.475Z,15.23
2022-10-16T22:27:47.034Z,15.41
2022-10-16T22:30:13.648Z,15.26
2022-10-16T22:32:42.480Z,14.20
2022-10-16T22:35:09.325Z,15.75
2022-10-16T22:37:36.113Z,15.00
2022-10-16T22:40:02.779Z,14.47
2022-10-16T22:42:29.627Z,14.60
2022-10-16T22:44:56.261Z,15.30
2022-10-16T22:47:22.963Z,14.71
2022-10-16T22:49:49.632Z,14.39
2022-10-16T22:52:17.072Z,14.21
2022-10-16T22:54:44.373Z,14.48
2022-10-16T22:57:11.109Z,15.70
2022-10-16T22:59:37.825Z,13.53
2022-10-16T23:02:29.218Z,13.76
2022-10-16T23:04:56.880Z,13.98
2022-10-16T23:07:23.514Z,14.18
2022-10-16T23:09:50.505Z,14.19
2022-10-16T23:12:19.187Z,15.64
2022-10-16T23:14:45.908Z,13.78
2022-10-16T23:17:12.511Z,13.75
2022-10-16T23:19:39.285Z,12.38
2022-10-16T23:22:05.915Z,14.08
2022-10-16T23:24:33.935Z,14.01
2022-10-16T23:27:00.734Z,14.27
2022-10-16T23:29:27.870Z,14.68
2022-10-16T23:31:56.537Z,15.52
2022-10-16T23:34:26.495Z,14.93
2022-10-16T23:36:53.101Z,12.84
2022-10-16T23:39:19.704Z,15.57
2022-10-16T23:41:46.328Z,15.12
2022-10-16T23:44:12.966Z,14.90
2022-10-16T23:46:39.583Z,14.65
2022-10-16T23:49:07.574Z,12.93
2022-10-16T23:51:34.492Z,14.41
2022-10-16T23:54:01.216Z,15.81
2022-10-16T23:56:27.931Z,15.81
2022-10-16T23:58:54.614Z,14.75
